LAN2400 SPJC-SLLP
Flight info
| Callsign | LAN2400 |
|---|---|
| Flight time | 1h 23m |
| Altitude | 37000 |
| Route | KULIS UM415 JUL UM657 ELAKO |
| Aircraft | A320/M-SDE3FGHIRWY/LB1 |
Departure
| Time | 2026-05-06 22:09 |
|---|---|
| Airport | Jorge Chávez International Airport (SPJC) |
Arrival
| Time | 2026-05-06 23:33 |
|---|---|
| Airport | El Alto International Airport (SLLP) |
| Time | Latitude | Longitude | Altitude | Speed | Heading |
|---|---|---|---|---|---|
| 2026-05-06 21:36 | -12.02454 | -77.10880 | 95 ft | 0 kts | 64° |
| 2026-05-06 21:58 | -12.02455 | -77.10883 | 93 ft | 2 kts | 64° |
| 2026-05-06 21:58 | -12.02463 | -77.10900 | 94 ft | 3 kts | 65° |
| 2026-05-06 21:58 | -12.02472 | -77.10919 | 93 ft | 3 kts | 65° |
| 2026-05-06 21:58 | -12.02480 | -77.10937 | 93 ft | 3 kts | 60° |
| 2026-05-06 21:59 | -12.02491 | -77.10954 | 92 ft | 3 kts | 42° |
| 2026-05-06 21:59 | -12.02507 | -77.10965 | 93 ft | 3 kts | 12° |
| 2026-05-06 21:59 | -12.02523 | -77.10965 | 93 ft | 2 kts | 336° |
| 2026-05-06 21:59 | -12.02526 | -77.10964 | 93 ft | 1 kts | 333° |
| 2026-05-06 22:02 | -12.02513 | -77.10980 | 94 ft | 6 kts | 301° |
| 2026-05-06 22:02 | -12.02482 | -77.11036 | 94 ft | 8 kts | 298° |
| 2026-05-06 22:03 | -12.02464 | -77.11072 | 92 ft | 8 kts | 298° |
| 2026-05-06 22:03 | -12.02414 | -77.11110 | 90 ft | 11 kts | 335° |
| 2026-05-06 22:03 | -12.02337 | -77.11147 | 89 ft | 13 kts | 335° |
| 2026-05-06 22:03 | -12.02255 | -77.11186 | 88 ft | 13 kts | 334° |
| 2026-05-06 22:04 | -12.02170 | -77.11229 | 87 ft | 14 kts | 334° |
| 2026-05-06 22:04 | -12.02081 | -77.11273 | 86 ft | 15 kts | 335° |
| 2026-05-06 22:04 | -12.01988 | -77.11318 | 86 ft | 15 kts | 335° |
| 2026-05-06 22:04 | -12.01893 | -77.11363 | 82 ft | 15 kts | 333° |
| 2026-05-06 22:05 | -12.01798 | -77.11414 | 73 ft | 16 kts | 334° |
| 2026-05-06 22:05 | -12.01698 | -77.11461 | 75 ft | 16 kts | 336° |
| 2026-05-06 22:05 | -12.01599 | -77.11511 | 71 ft | 16 kts | 333° |
| 2026-05-06 22:05 | -12.01497 | -77.11560 | 66 ft | 16 kts | 335° |
| 2026-05-06 22:06 | -12.01385 | -77.11615 | 63 ft | 19 kts | 333° |
| 2026-05-06 22:06 | -12.01265 | -77.11675 | 65 ft | 19 kts | 335° |
| 2026-05-06 22:06 | -12.01147 | -77.11732 | 63 ft | 18 kts | 333° |
| 2026-05-06 22:06 | -12.01034 | -77.11788 | 60 ft | 18 kts | 335° |
| 2026-05-06 22:07 | -12.00919 | -77.11843 | 59 ft | 18 kts | 335° |
| 2026-05-06 22:07 | -12.00807 | -77.11900 | 57 ft | 14 kts | 334° |
| 2026-05-06 22:07 | -12.00718 | -77.11945 | 55 ft | 15 kts | 334° |
| 2026-05-06 22:07 | -12.00674 | -77.12020 | 54 ft | 12 kts | 256° |
| 2026-05-06 22:08 | -12.00707 | -77.12087 | 51 ft | 10 kts | 233° |
| 2026-05-06 22:08 | -12.00762 | -77.12107 | 53 ft | 9 kts | 191° |
| 2026-05-06 22:08 | -12.00813 | -77.12104 | 50 ft | 0 kts | 154° |
| 2026-05-06 22:09 | -12.00939 | -77.12042 | 53 ft | 57 kts | 154° |
| 2026-05-06 22:09 | -12.01510 | -77.11763 | 65 ft | 121 kts | 155° |
| 2026-05-06 22:09 | -12.02391 | -77.11325 | 272 ft | 151 kts | 155° |
| 2026-05-06 22:09 | -12.03366 | -77.10862 | 772 ft | 158 kts | 156° |
| 2026-05-06 22:10 | -12.04381 | -77.10365 | 1289 ft | 165 kts | 155° |
| 2026-05-06 22:10 | -12.05462 | -77.09830 | 1652 ft | 180 kts | 155° |
| 2026-05-06 22:10 | -12.06638 | -77.09250 | 1937 ft | 197 kts | 154° |
| 2026-05-06 22:10 | -12.07925 | -77.08613 | 2217 ft | 216 kts | 155° |
| 2026-05-06 22:11 | -12.09332 | -77.07918 | 2605 ft | 233 kts | 154° |
| 2026-05-06 22:11 | -12.10840 | -77.07175 | 2966 ft | 248 kts | 154° |
| 2026-05-06 22:11 | -12.12438 | -77.06387 | 3345 ft | 261 kts | 154° |
| 2026-05-06 22:11 | -12.14092 | -77.05572 | 3846 ft | 265 kts | 154° |
| 2026-05-06 22:12 | -12.15763 | -77.04745 | 4410 ft | 268 kts | 154° |
| 2026-05-06 22:12 | -12.17445 | -77.03910 | 4939 ft | 270 kts | 154° |
| 2026-05-06 22:12 | -12.19150 | -77.03066 | 5448 ft | 273 kts | 154° |
| 2026-05-06 22:12 | -12.20851 | -77.02223 | 5980 ft | 279 kts | 154° |
| 2026-05-06 22:13 | -12.22589 | -77.01331 | 6855 ft | 280 kts | 149° |
| 2026-05-06 22:13 | -12.24115 | -77.00085 | 7699 ft | 283 kts | 133° |
| 2026-05-06 22:13 | -12.25249 | -76.98437 | 8523 ft | 287 kts | 117° |
| 2026-05-06 22:13 | -12.26131 | -76.96588 | 9322 ft | 291 kts | 116° |
| 2026-05-06 22:14 | -12.27029 | -76.94715 | 10105 ft | 295 kts | 116° |
| 2026-05-06 22:14 | -12.27954 | -76.92793 | 10619 ft | 309 kts | 116° |
| 2026-05-06 22:14 | -12.28929 | -76.90768 | 11001 ft | 326 kts | 116° |
| 2026-05-06 22:14 | -12.29964 | -76.88631 | 11345 ft | 343 kts | 116° |
| 2026-05-06 22:15 | -12.31040 | -76.86408 | 11812 ft | 353 kts | 116° |
| 2026-05-06 22:15 | -12.32134 | -76.84143 | 12478 ft | 357 kts | 116° |
| 2026-05-06 22:15 | -12.33240 | -76.81849 | 13155 ft | 361 kts | 116° |
| 2026-05-06 22:15 | -12.34352 | -76.79537 | 13830 ft | 364 kts | 116° |
| 2026-05-06 22:16 | -12.35477 | -76.77198 | 14397 ft | 368 kts | 116° |
| 2026-05-06 22:16 | -12.36608 | -76.74845 | 14994 ft | 370 kts | 116° |
| 2026-05-06 22:16 | -12.37749 | -76.72477 | 15579 ft | 373 kts | 116° |
| 2026-05-06 22:16 | -12.38901 | -76.70090 | 16154 ft | 376 kts | 116° |
| 2026-05-06 22:17 | -12.40059 | -76.67686 | 16715 ft | 379 kts | 116° |
| 2026-05-06 22:17 | -12.41227 | -76.65259 | 17282 ft | 382 kts | 116° |
| 2026-05-06 22:17 | -12.42403 | -76.62817 | 17856 ft | 385 kts | 116° |
| 2026-05-06 22:17 | -12.43595 | -76.60349 | 18410 ft | 388 kts | 116° |
| 2026-05-06 22:18 | -12.44801 | -76.57862 | 18901 ft | 391 kts | 116° |
| 2026-05-06 22:18 | -12.46015 | -76.55358 | 19384 ft | 395 kts | 116° |
| 2026-05-06 22:18 | -12.47237 | -76.52830 | 19875 ft | 397 kts | 116° |
| 2026-05-06 22:18 | -12.48451 | -76.50323 | 20351 ft | 401 kts | 116° |
| 2026-05-06 22:19 | -12.49696 | -76.47755 | 20818 ft | 405 kts | 116° |
| 2026-05-06 22:19 | -12.50957 | -76.45157 | 21298 ft | 409 kts | 116° |
| 2026-05-06 22:19 | -12.52227 | -76.42541 | 21765 ft | 413 kts | 116° |
| 2026-05-06 22:19 | -12.53506 | -76.39898 | 22222 ft | 416 kts | 116° |
| 2026-05-06 22:20 | -12.54795 | -76.37230 | 22672 ft | 420 kts | 116° |
| 2026-05-06 22:20 | -12.56095 | -76.34536 | 23117 ft | 424 kts | 116° |
| 2026-05-06 22:20 | -12.57405 | -76.31824 | 23553 ft | 427 kts | 116° |
| 2026-05-06 22:20 | -12.58726 | -76.29088 | 23924 ft | 430 kts | 116° |
| 2026-05-06 22:21 | -12.60055 | -76.26341 | 24282 ft | 433 kts | 116° |
| 2026-05-06 22:21 | -12.61400 | -76.23564 | 24635 ft | 436 kts | 116° |
| 2026-05-06 22:21 | -12.62749 | -76.20773 | 24997 ft | 439 kts | 116° |
| 2026-05-06 22:21 | -12.64104 | -76.17967 | 25354 ft | 441 kts | 115° |
| 2026-05-06 22:22 | -12.65467 | -76.15142 | 25694 ft | 443 kts | 115° |
| 2026-05-06 22:22 | -12.66834 | -76.12305 | 26032 ft | 446 kts | 115° |
| 2026-05-06 22:22 | -12.68210 | -76.09449 | 26361 ft | 448 kts | 115° |
| 2026-05-06 22:22 | -12.69590 | -76.06582 | 26677 ft | 451 kts | 115° |
| 2026-05-06 22:23 | -12.70984 | -76.03694 | 26980 ft | 453 kts | 115° |
| 2026-05-06 22:23 | -12.72383 | -76.00792 | 27305 ft | 456 kts | 115° |
| 2026-05-06 22:23 | -12.73792 | -75.97877 | 27613 ft | 458 kts | 116° |
| 2026-05-06 22:23 | -12.75448 | -75.95072 | 27891 ft | 462 kts | 124° |
| 2026-05-06 22:24 | -12.77370 | -75.92427 | 28155 ft | 465 kts | 125° |
| 2026-05-06 22:24 | -12.79313 | -75.89761 | 28416 ft | 468 kts | 125° |
| 2026-05-06 22:24 | -12.81260 | -75.87083 | 28696 ft | 470 kts | 125° |
| 2026-05-06 22:24 | -12.83214 | -75.84391 | 28980 ft | 472 kts | 125° |
| 2026-05-06 22:25 | -12.85180 | -75.81683 | 29263 ft | 474 kts | 124° |
| 2026-05-06 22:25 | -12.87151 | -75.78965 | 29509 ft | 477 kts | 124° |
| 2026-05-06 22:25 | -12.89133 | -75.76232 | 29753 ft | 479 kts | 124° |
| 2026-05-06 22:25 | -12.91126 | -75.73484 | 29996 ft | 480 kts | 124° |
| 2026-05-06 22:26 | -12.93126 | -75.70731 | 30210 ft | 482 kts | 124° |
| 2026-05-06 22:26 | -12.95131 | -75.67968 | 30409 ft | 484 kts | 124° |
| 2026-05-06 22:26 | -12.97114 | -75.65236 | 30586 ft | 486 kts | 124° |
| 2026-05-06 22:26 | -12.99167 | -75.62405 | 30785 ft | 487 kts | 124° |
| 2026-05-06 22:27 | -13.01160 | -75.59653 | 30958 ft | 489 kts | 124° |
| 2026-05-06 22:27 | -13.03189 | -75.56850 | 31134 ft | 489 kts | 124° |
| 2026-05-06 22:27 | -13.05222 | -75.54043 | 31382 ft | 489 kts | 124° |
| 2026-05-06 22:27 | -13.07247 | -75.51244 | 31644 ft | 489 kts | 124° |
| 2026-05-06 22:28 | -13.09271 | -75.48444 | 31900 ft | 488 kts | 124° |
| 2026-05-06 22:28 | -13.11294 | -75.45644 | 32149 ft | 488 kts | 124° |
| 2026-05-06 22:28 | -13.13311 | -75.42849 | 32393 ft | 488 kts | 125° |
| 2026-05-06 22:28 | -13.15333 | -75.40053 | 32628 ft | 488 kts | 125° |
| 2026-05-06 22:29 | -13.17359 | -75.37256 | 32871 ft | 488 kts | 125° |
| 2026-05-06 22:29 | -13.19382 | -75.34458 | 33129 ft | 488 kts | 124° |
| 2026-05-06 22:29 | -13.21399 | -75.31665 | 33397 ft | 487 kts | 125° |
| 2026-05-06 22:29 | -13.23418 | -75.28868 | 33653 ft | 487 kts | 125° |
| 2026-05-06 22:30 | -13.25430 | -75.26079 | 33914 ft | 487 kts | 125° |
| 2026-05-06 22:30 | -13.27446 | -75.23285 | 34177 ft | 487 kts | 125° |
| 2026-05-06 22:30 | -13.29457 | -75.20495 | 34421 ft | 487 kts | 125° |
| 2026-05-06 22:30 | -13.31476 | -75.17698 | 34652 ft | 486 kts | 125° |
| 2026-05-06 22:31 | -13.33489 | -75.14914 | 34905 ft | 486 kts | 125° |
| 2026-05-06 22:31 | -13.35500 | -75.12132 | 35152 ft | 485 kts | 125° |
| 2026-05-06 22:31 | -13.37503 | -75.09355 | 35382 ft | 484 kts | 125° |
| 2026-05-06 22:31 | -13.39508 | -75.06566 | 35604 ft | 484 kts | 126° |
| 2026-05-06 22:32 | -13.41506 | -75.03785 | 35798 ft | 485 kts | 126° |
| 2026-05-06 22:32 | -13.43507 | -75.00998 | 36000 ft | 485 kts | 126° |
| 2026-05-06 22:32 | -13.45509 | -74.98207 | 36198 ft | 485 kts | 126° |
| 2026-05-06 22:32 | -13.47424 | -74.95369 | 36423 ft | 483 kts | 120° |
| 2026-05-06 22:33 | -13.48945 | -74.92301 | 36647 ft | 481 kts | 112° |
| 2026-05-06 22:33 | -13.50282 | -74.89149 | 36842 ft | 481 kts | 112° |
| 2026-05-06 22:33 | -13.51622 | -74.86005 | 37034 ft | 481 kts | 112° |
| 2026-05-06 22:33 | -13.52975 | -74.82846 | 37195 ft | 481 kts | 112° |
| 2026-05-06 22:34 | -13.55666 | -74.76571 | 37242 ft | 480 kts | 112° |
| 2026-05-06 22:34 | -13.58349 | -74.70299 | 37237 ft | 480 kts | 112° |
| 2026-05-06 22:35 | -13.61025 | -74.64016 | 37237 ft | 480 kts | 112° |
| 2026-05-06 22:35 | -13.63704 | -74.57730 | 37230 ft | 479 kts | 112° |
| 2026-05-06 22:36 | -13.66384 | -74.51445 | 37244 ft | 480 kts | 112° |
| 2026-05-06 22:36 | -13.67807 | -74.48111 | 37243 ft | 479 kts | 112° |
| 2026-05-06 22:37 | -13.70479 | -74.41834 | 37240 ft | 479 kts | 112° |
| 2026-05-06 22:37 | -13.73142 | -74.35558 | 37230 ft | 479 kts | 112° |
| 2026-05-06 22:38 | -13.75815 | -74.29268 | 37225 ft | 480 kts | 112° |
| 2026-05-06 22:38 | -13.78488 | -74.22985 | 37219 ft | 480 kts | 112° |
| 2026-05-06 22:39 | -13.81158 | -74.16693 | 37212 ft | 480 kts | 112° |
| 2026-05-06 22:39 | -13.83824 | -74.10404 | 37207 ft | 480 kts | 112° |
| 2026-05-06 22:40 | -13.86497 | -74.04108 | 37196 ft | 480 kts | 112° |
| 2026-05-06 22:40 | -13.89136 | -73.97848 | 37187 ft | 481 kts | 112° |
| 2026-05-06 22:41 | -13.93122 | -73.88395 | 37180 ft | 481 kts | 112° |
| 2026-05-06 22:42 | -13.95786 | -73.82109 | 37189 ft | 479 kts | 113° |
| 2026-05-06 22:42 | -13.98448 | -73.75808 | 37180 ft | 480 kts | 112° |
| 2026-05-06 22:43 | -14.01103 | -73.69508 | 37185 ft | 479 kts | 113° |
| 2026-05-06 22:43 | -14.03752 | -73.63221 | 37185 ft | 479 kts | 113° |
| 2026-05-06 22:44 | -14.06395 | -73.56919 | 37181 ft | 479 kts | 112° |
| 2026-05-06 22:44 | -14.09041 | -73.50614 | 37185 ft | 479 kts | 113° |
| 2026-05-06 22:45 | -14.11684 | -73.44326 | 37174 ft | 479 kts | 113° |
| 2026-05-06 22:45 | -14.14314 | -73.38060 | 37173 ft | 479 kts | 113° |
| 2026-05-06 22:46 | -14.16966 | -73.31755 | 37177 ft | 479 kts | 112° |
| 2026-05-06 22:46 | -14.19610 | -73.25445 | 37168 ft | 480 kts | 113° |
| 2026-05-06 22:47 | -14.22251 | -73.19133 | 37173 ft | 478 kts | 113° |
| 2026-05-06 22:47 | -14.24897 | -73.12823 | 37169 ft | 479 kts | 113° |
| 2026-05-06 22:48 | -14.27540 | -73.06504 | 37160 ft | 480 kts | 112° |
| 2026-05-06 22:48 | -14.30158 | -73.00225 | 37163 ft | 480 kts | 113° |
| 2026-05-06 22:49 | -14.32799 | -72.93897 | 37171 ft | 480 kts | 113° |
| 2026-05-06 22:49 | -14.35441 | -72.87575 | 37180 ft | 480 kts | 113° |
| 2026-05-06 22:50 | -14.38074 | -72.81255 | 37170 ft | 479 kts | 113° |
| 2026-05-06 22:50 | -14.40703 | -72.74937 | 37172 ft | 479 kts | 113° |
| 2026-05-06 22:51 | -14.42885 | -72.69679 | 37167 ft | 479 kts | 113° |
| 2026-05-06 22:51 | -14.45503 | -72.63363 | 37160 ft | 479 kts | 113° |
| 2026-05-06 22:52 | -14.48135 | -72.57036 | 37159 ft | 479 kts | 113° |
| 2026-05-06 22:52 | -14.50763 | -72.50722 | 37143 ft | 480 kts | 113° |
| 2026-05-06 22:53 | -14.53392 | -72.44386 | 37142 ft | 480 kts | 113° |
| 2026-05-06 22:53 | -14.56013 | -72.38047 | 37149 ft | 480 kts | 113° |
| 2026-05-06 22:54 | -14.58623 | -72.31755 | 37153 ft | 480 kts | 113° |
| 2026-05-06 22:54 | -14.61246 | -72.25418 | 37151 ft | 480 kts | 113° |
| 2026-05-06 22:55 | -14.63859 | -72.19067 | 37148 ft | 480 kts | 113° |
| 2026-05-06 22:55 | -14.66481 | -72.12718 | 37160 ft | 480 kts | 113° |
| 2026-05-06 22:56 | -14.69100 | -72.06374 | 37168 ft | 480 kts | 113° |
| 2026-05-06 22:56 | -14.71711 | -72.00023 | 37165 ft | 480 kts | 112° |
| 2026-05-06 22:57 | -14.74319 | -71.93689 | 37167 ft | 481 kts | 112° |
| 2026-05-06 22:57 | -14.76931 | -71.87317 | 37182 ft | 480 kts | 112° |
| 2026-05-06 22:58 | -14.79538 | -71.80965 | 37182 ft | 480 kts | 112° |
| 2026-05-06 22:58 | -14.82153 | -71.74623 | 37174 ft | 480 kts | 112° |
| 2026-05-06 22:59 | -14.84755 | -71.68274 | 37169 ft | 479 kts | 112° |
| 2026-05-06 22:59 | -14.87353 | -71.61935 | 37164 ft | 479 kts | 112° |
| 2026-05-06 23:00 | -14.89952 | -71.55579 | 37177 ft | 480 kts | 112° |
| 2026-05-06 23:00 | -14.92540 | -71.49225 | 37172 ft | 479 kts | 113° |
| 2026-05-06 23:01 | -14.95140 | -71.42881 | 37177 ft | 479 kts | 112° |
| 2026-05-06 23:01 | -14.97736 | -71.36525 | 37186 ft | 479 kts | 112° |
| 2026-05-06 23:02 | -15.00319 | -71.30178 | 37189 ft | 479 kts | 112° |
| 2026-05-06 23:02 | -15.02904 | -71.23828 | 37190 ft | 479 kts | 112° |
| 2026-05-06 23:03 | -15.05488 | -71.17471 | 37200 ft | 479 kts | 113° |
| 2026-05-06 23:03 | -15.08054 | -71.11148 | 37209 ft | 479 kts | 112° |
| 2026-05-06 23:04 | -15.10631 | -71.04788 | 37216 ft | 479 kts | 112° |
| 2026-05-06 23:04 | -15.13213 | -70.98438 | 37227 ft | 478 kts | 112° |
| 2026-05-06 23:05 | -15.15795 | -70.92088 | 37228 ft | 479 kts | 113° |
| 2026-05-06 23:05 | -15.18371 | -70.85731 | 37223 ft | 479 kts | 112° |
| 2026-05-06 23:06 | -15.20936 | -70.79376 | 37220 ft | 478 kts | 112° |
| 2026-05-06 23:06 | -15.23498 | -70.73022 | 37214 ft | 478 kts | 112° |
| 2026-05-06 23:07 | -15.26062 | -70.66664 | 37206 ft | 478 kts | 113° |
| 2026-05-06 23:07 | -15.28632 | -70.60304 | 37201 ft | 479 kts | 112° |
| 2026-05-06 23:08 | -15.31197 | -70.53937 | 37201 ft | 478 kts | 112° |
| 2026-05-06 23:08 | -15.33752 | -70.47586 | 37233 ft | 478 kts | 113° |
| 2026-05-06 23:09 | -15.36311 | -70.41228 | 37328 ft | 478 kts | 112° |
| 2026-05-06 23:09 | -15.38847 | -70.34914 | 37434 ft | 478 kts | 112° |
| 2026-05-06 23:10 | -15.41400 | -70.28552 | 37536 ft | 478 kts | 112° |
| 2026-05-06 23:10 | -15.43954 | -70.22199 | 37604 ft | 478 kts | 112° |
| 2026-05-06 23:11 | -15.46515 | -70.15833 | 37598 ft | 478 kts | 115° |
| 2026-05-06 23:11 | -15.49686 | -70.09797 | 37593 ft | 477 kts | 120° |
| 2026-05-06 23:12 | -15.52959 | -70.03792 | 37518 ft | 478 kts | 120° |
| 2026-05-06 23:12 | -15.56227 | -69.97795 | 37399 ft | 478 kts | 120° |
| 2026-05-06 23:13 | -15.59493 | -69.91785 | 37287 ft | 478 kts | 120° |
| 2026-05-06 23:13 | -15.62756 | -69.85778 | 37168 ft | 478 kts | 120° |
| 2026-05-06 23:14 | -15.66024 | -69.79765 | 37106 ft | 478 kts | 120° |
| 2026-05-06 23:14 | -15.69287 | -69.73754 | 37103 ft | 478 kts | 120° |
| 2026-05-06 23:15 | -15.72551 | -69.67735 | 37105 ft | 479 kts | 120° |
| 2026-05-06 23:15 | -15.75811 | -69.61714 | 37107 ft | 479 kts | 120° |
| 2026-05-06 23:16 | -15.79074 | -69.55678 | 37109 ft | 479 kts | 120° |
| 2026-05-06 23:16 | -15.82317 | -69.49689 | 37112 ft | 479 kts | 120° |
| 2026-05-06 23:17 | -15.85584 | -69.43650 | 37112 ft | 480 kts | 120° |
| 2026-05-06 23:17 | -15.88846 | -69.37599 | 37116 ft | 480 kts | 120° |
| 2026-05-06 23:18 | -15.92113 | -69.31550 | 37112 ft | 480 kts | 121° |
| 2026-05-06 23:18 | -15.95951 | -69.25889 | 37057 ft | 480 kts | 128° |
| 2026-05-06 23:18 | -15.97941 | -69.23100 | 36335 ft | 483 kts | 127° |
| 2026-05-06 23:19 | -15.99949 | -69.20278 | 35339 ft | 488 kts | 127° |
| 2026-05-06 23:19 | -16.01976 | -69.17419 | 34384 ft | 492 kts | 127° |
| 2026-05-06 23:19 | -16.04010 | -69.14547 | 33267 ft | 496 kts | 127° |
| 2026-05-06 23:19 | -16.06060 | -69.11650 | 32055 ft | 500 kts | 126° |
| 2026-05-06 23:20 | -16.08116 | -69.08744 | 30868 ft | 495 kts | 126° |
| 2026-05-06 23:20 | -16.10119 | -69.05912 | 30220 ft | 474 kts | 126° |
| 2026-05-06 23:20 | -16.12023 | -69.03222 | 29705 ft | 451 kts | 126° |
| 2026-05-06 23:20 | -16.13868 | -69.00619 | 28698 ft | 445 kts | 126° |
| 2026-05-06 23:21 | -16.15701 | -68.98035 | 28049 ft | 442 kts | 126° |
| 2026-05-06 23:21 | -16.17520 | -68.95465 | 27388 ft | 440 kts | 126° |
| 2026-05-06 23:21 | -16.19329 | -68.92907 | 26715 ft | 434 kts | 126° |
| 2026-05-06 23:21 | -16.21086 | -68.90417 | 26078 ft | 420 kts | 126° |
| 2026-05-06 23:22 | -16.22787 | -68.88006 | 25466 ft | 407 kts | 126° |
| 2026-05-06 23:22 | -16.24436 | -68.85669 | 24860 ft | 395 kts | 127° |
| 2026-05-06 23:22 | -16.26030 | -68.83413 | 24300 ft | 384 kts | 127° |
| 2026-05-06 23:22 | -16.27599 | -68.81191 | 23755 ft | 373 kts | 127° |
| 2026-05-06 23:23 | -16.29092 | -68.79077 | 23190 ft | 362 kts | 127° |
| 2026-05-06 23:23 | -16.30557 | -68.77002 | 22704 ft | 349 kts | 127° |
| 2026-05-06 23:23 | -16.31970 | -68.75003 | 22262 ft | 337 kts | 127° |
| 2026-05-06 23:23 | -16.33336 | -68.73069 | 21828 ft | 325 kts | 127° |
| 2026-05-06 23:24 | -16.34650 | -68.71207 | 21445 ft | 314 kts | 127° |
| 2026-05-06 23:24 | -16.35917 | -68.69408 | 21053 ft | 302 kts | 127° |
| 2026-05-06 23:24 | -16.37137 | -68.67678 | 20671 ft | 292 kts | 127° |
| 2026-05-06 23:24 | -16.38316 | -68.66004 | 20296 ft | 282 kts | 128° |
| 2026-05-06 23:25 | -16.39467 | -68.64372 | 19941 ft | 278 kts | 128° |
| 2026-05-06 23:25 | -16.40599 | -68.62767 | 19553 ft | 271 kts | 128° |
| 2026-05-06 23:25 | -16.41695 | -68.61211 | 19198 ft | 263 kts | 128° |
| 2026-05-06 23:25 | -16.42752 | -68.59712 | 18973 ft | 248 kts | 128° |
| 2026-05-06 23:26 | -16.43761 | -68.58280 | 18863 ft | 244 kts | 128° |
| 2026-05-06 23:26 | -16.44763 | -68.56853 | 18751 ft | 243 kts | 128° |
| 2026-05-06 23:26 | -16.45756 | -68.55439 | 18666 ft | 243 kts | 128° |
| 2026-05-06 23:26 | -16.46758 | -68.54013 | 18601 ft | 242 kts | 128° |
| 2026-05-06 23:27 | -16.47748 | -68.52602 | 18526 ft | 241 kts | 128° |
| 2026-05-06 23:27 | -16.48737 | -68.51193 | 18450 ft | 240 kts | 128° |
| 2026-05-06 23:27 | -16.49683 | -68.49758 | 18371 ft | 241 kts | 121° |
| 2026-05-06 23:27 | -16.50298 | -68.48127 | 18265 ft | 244 kts | 106° |
| 2026-05-06 23:28 | -16.50491 | -68.46384 | 17895 ft | 241 kts | 93° |
| 2026-05-06 23:28 | -16.50532 | -68.44639 | 17301 ft | 240 kts | 93° |
| 2026-05-06 23:28 | -16.50580 | -68.42923 | 16775 ft | 234 kts | 93° |
| 2026-05-06 23:28 | -16.50627 | -68.41273 | 16434 ft | 221 kts | 93° |
| 2026-05-06 23:29 | -16.50673 | -68.39724 | 16164 ft | 208 kts | 93° |
| 2026-05-06 23:29 | -16.50716 | -68.38279 | 15941 ft | 191 kts | 93° |
| 2026-05-06 23:29 | -16.50757 | -68.36940 | 15704 ft | 181 kts | 93° |
| 2026-05-06 23:29 | -16.50800 | -68.35636 | 15484 ft | 180 kts | 93° |
| 2026-05-06 23:30 | -16.50845 | -68.34350 | 15266 ft | 179 kts | 92° |
| 2026-05-06 23:30 | -16.50889 | -68.33054 | 15052 ft | 179 kts | 92° |
| 2026-05-06 23:30 | -16.50932 | -68.31745 | 14836 ft | 178 kts | 92° |
| 2026-05-06 23:30 | -16.50974 | -68.30474 | 14621 ft | 178 kts | 92° |
| 2026-05-06 23:31 | -16.51015 | -68.29189 | 14395 ft | 177 kts | 91° |
| 2026-05-06 23:31 | -16.51057 | -68.27907 | 14183 ft | 177 kts | 91° |
| 2026-05-06 23:31 | -16.51098 | -68.26628 | 13989 ft | 176 kts | 90° |
| 2026-05-06 23:31 | -16.51138 | -68.25357 | 13771 ft | 176 kts | 90° |
| 2026-05-06 23:32 | -16.51185 | -68.24084 | 13578 ft | 175 kts | 91° |
| 2026-05-06 23:32 | -16.51243 | -68.22830 | 13434 ft | 174 kts | 90° |
| 2026-05-06 23:32 | -16.51268 | -68.21578 | 13285 ft | 174 kts | 89° |
| 2026-05-06 23:32 | -16.51299 | -68.20333 | 13203 ft | 162 kts | 90° |
| 2026-05-06 23:33 | -16.51323 | -68.19440 | 13273 ft | 80 kts | 90° |
| 2026-05-06 23:33 | -16.51338 | -68.19062 | 13284 ft | 33 kts | 91° |
| 2026-05-06 23:33 | -16.51342 | -68.18838 | 13289 ft | 30 kts | 95° |
| 2026-05-06 23:33 | -16.51355 | -68.18630 | 13295 ft | 28 kts | 88° |
| 2026-05-06 23:34 | -16.51351 | -68.18435 | 13299 ft | 25 kts | 88° |
| 2026-05-06 23:34 | -16.51324 | -68.18298 | 13299 ft | 17 kts | 70° |
| 2026-05-06 23:34 | -16.51271 | -68.18193 | 13302 ft | 16 kts | 60° |
| 2026-05-06 23:34 | -16.51209 | -68.18113 | 13319 ft | 12 kts | 46° |
| 2026-05-06 23:35 | -16.51150 | -68.18049 | 13328 ft | 12 kts | 46° |
| 2026-05-06 23:35 | -16.51103 | -68.17998 | 13332 ft | 7 kts | 46° |
| 2026-05-06 23:35 | -16.51071 | -68.17963 | 13334 ft | 7 kts | 46° |
| 2026-05-06 23:35 | -16.51049 | -68.17939 | 13336 ft | 0 kts | 46° |
| 2026-05-06 23:37 | -16.51048 | -68.17938 | 13336 ft | 1 kts | 46° |
| 2026-05-06 23:38 | -16.51029 | -68.17918 | 13336 ft | 5 kts | 46° |
| 2026-05-06 23:38 | -16.51001 | -68.17885 | 13336 ft | 8 kts | 52° |
| 2026-05-06 23:38 | -16.50992 | -68.17822 | 13336 ft | 10 kts | 91° |
| 2026-05-06 23:38 | -16.50992 | -68.17750 | 13336 ft | 8 kts | 72° |
| 2026-05-06 23:39 | -16.50967 | -68.17729 | 13336 ft | 4 kts | 30° |
| 2026-05-06 23:39 | -16.50953 | -68.17721 | 13336 ft | 0 kts | 27° |
| 2026-05-06 23:39 | -16.50952 | -68.17721 | 13336 ft | 0 kts | 26° |